Time;durP1;ratioP1;P1;durP2;ratioP2;P2;SDS_P1;SDS_P2;PMS_P1;PMS_P2;Temp;Humidity;BMP_temperature;BMP_pressure;BME280_temperature;BME280_humidity;BME280_pressure;Samples;Min_cycle;Max_cycle;Signal;HPM_P1;HPM_P2
2021/11/01 00:02:06;;;;;;;2.30;2.10;;;;;;;;;;5015930;28;20040;-72
2021/11/01 00:04:32;;;;;;;7.53;1.92;;;;;;;;;;5014536;28;20037;-73
2021/11/01 00:06:58;;;;;;;1.35;1.25;;;;;;;;;;5009084;28;20033;-73
2021/11/01 00:09:28;;;;;;;2.97;1.55;;;;;;;;;;5009042;28;20025;-72
2021/11/01 00:11:54;;;;;;;2.42;1.52;;;;;;;;;;5013049;28;20033;-73
2021/11/01 00:14:20;;;;;;;1.45;1.35;;;;;;;;;;5009079;28;20026;-72
2021/11/01 00:16:46;;;;;;;2.10;1.50;;;;;;;;;;5011103;28;20029;-73
2021/11/01 00:19:12;;;;;;;1.55;1.48;;;;;;;;;;5009180;28;20100;-73
2021/11/01 00:21:38;;;;;;;1.98;1.63;;;;;;;;;;5013953;28;20030;-73
2021/11/01 00:24:04;;;;;;;4.55;2.40;;;;;;;;;;5009650;28;20064;-73
2021/11/01 00:26:30;;;;;;;3.83;2.20;;;;;;;;;;5010658;28;20410;-72
2021/11/01 00:28:56;;;;;;;1.23;1.23;;;;;;;;;;5016580;28;20033;-73
2021/11/01 00:31:22;;;;;;;1.25;1.20;;;;;;;;;;5009331;28;20038;-73
2021/11/01 00:33:48;;;;;;;2.17;2.00;;;;;;;;;;5008847;28;20100;-73
2021/11/01 00:36:14;;;;;;;1.30;1.20;;;;;;;;;;5008460;28;20033;-73
2021/11/01 00:38:39;;;;;;;4.10;1.88;;;;;;;;;;5003119;28;20092;-73
2021/11/01 00:41:05;;;;;;;1.85;1.52;;;;;;;;;;5008475;28;20041;-73
2021/11/01 00:43:31;;;;;;;6.18;3.53;;;;;;;;;;5011813;28;20432;-74
2021/11/01 00:45:57;;;;;;;0.85;0.85;;;;;;;;;;5008717;28;20030;-73
2021/11/01 00:48:23;;;;;;;6.57;3.22;;;;;;;;;;5008240;28;20054;-73
2021/11/01 00:50:49;;;;;;;2.97;2.15;;;;;;;;;;5012538;28;20034;-72
2021/11/01 00:53:16;;;;;;;0.93;0.82;;;;;;;;;;5005624;28;20126;-73
2021/11/01 00:55:49;;;;;;;3.05;2.05;;;;;;;;;;5007835;28;20397;-73
2021/11/01 00:58:15;;;;;;;2.40;2.20;;;;;;;;;;5012050;28;20057;-73
2021/11/01 01:00:42;;;;;;;0.90;0.88;;;;;;;;;;5012236;28;20041;-73
2021/11/01 01:03:10;;;;;;;9.63;3.15;;;;;;;;;;5009475;28;20026;-73
2021/11/01 01:05:36;;;;;;;3.88;2.42;;;;;;;;;;5007731;28;20033;-73
2021/11/01 01:08:02;;;;;;;1.38;1.27;;;;;;;;;;5011729;28;20109;-73
2021/11/01 01:10:28;;;;;;;4.28;2.17;;;;;;;;;;5008432;28;20033;-73
2021/11/01 01:12:55;;;;;;;1.80;1.70;;;;;;;;;;5012267;28;20033;-74
2021/11/01 01:15:23;;;;;;;1.92;1.23;;;;;;;;;;5005914;28;20057;-73
2021/11/01 01:17:50;;;;;;;1.08;1.02;;;;;;;;;;5012781;28;20042;-73
2021/11/01 01:20:18;;;;;;;1.55;1.45;;;;;;;;;;5013062;28;20033;-73
2021/11/01 01:22:45;;;;;;;4.68;2.10;;;;;;;;;;5008295;28;20049;-73
2021/11/01 01:25:20;;;;;;;1.20;0.98;;;;;;;;;;5010805;28;20026;-73
2021/11/01 01:27:47;;;;;;;0.88;0.88;;;;;;;;;;5014612;28;20076;-73
2021/11/01 01:30:14;;;;;;;2.60;0.70;;;;;;;;;;5008654;28;20523;-73
2021/11/01 01:32:40;;;;;;;0.77;0.77;;;;;;;;;;5011062;28;20109;-73
2021/11/01 01:35:07;;;;;;;2.67;1.73;;;;;;;;;;5013117;28;20117;-73
2021/11/01 01:37:33;;;;;;;0.75;0.75;;;;;;;;;;5010450;28;20087;-73
2021/11/01 01:39:59;;;;;;;2.00;1.67;;;;;;;;;;5010885;28;20514;-73
2021/11/01 01:42:25;;;;;;;1.48;1.38;;;;;;;;;;5011018;28;20378;-74
2021/11/01 01:44:51;;;;;;;0.98;0.90;;;;;;;;;;5010941;28;20038;-73
2021/11/01 01:47:18;;;;;;;6.35;2.15;;;;;;;;;;5011747;28;20424;-74
2021/11/01 01:49:44;;;;;;;1.65;1.55;;;;;;;;;;5014219;28;20088;-73
2021/11/01 01:52:10;;;;;;;4.68;2.20;;;;;;;;;;5016102;28;20029;-73
2021/11/01 01:54:36;;;;;;;1.85;1.67;;;;;;;;;;5016622;28;20040;-73
2021/11/01 01:57:03;;;;;;;3.00;2.28;;;;;;;;;;5013123;28;20032;-73
2021/11/01 01:59:29;;;;;;;2.42;2.20;;;;;;;;;;5012579;28;20106;-73
2021/11/01 02:01:56;;;;;;;1.05;0.93;;;;;;;;;;5011575;28;20045;-73
2021/11/01 02:04:27;;;;;;;4.28;3.05;;;;;;;;;;5010503;28;20018;-73
2021/11/01 02:07:06;;;;;;;1.75;1.17;;;;;;;;;;5011822;28;20080;-74
2021/11/01 02:09:40;;;;;;;2.88;1.85;;;;;;;;;;5010312;28;20034;-73
2021/11/01 02:12:09;;;;;;;1.48;1.35;;;;;;;;;;5009293;28;20032;-73
2021/11/01 02:14:38;;;;;;;3.05;2.25;;;;;;;;;;5010760;28;20469;-73
2021/11/01 02:17:05;;;;;;;1.70;1.42;;;;;;;;;;5013195;28;20037;-73
2021/11/01 02:19:34;;;;;;;2.65;2.22;;;;;;;;;;5010555;28;20045;-73
2021/11/01 02:22:02;;;;;;;2.55;1.05;;;;;;;;;;5009750;28;20574;-74
2021/11/01 02:24:40;;;;;;;2.95;1.65;;;;;;;;;;5014700;28;20017;-73
2021/11/01 02:27:09;;;;;;;1.00;1.00;;;;;;;;;;5011793;28;20032;-73
2021/11/01 02:29:36;;;;;;;2.53;1.63;;;;;;;;;;5010258;28;20025;-73
2021/11/01 02:32:02;;;;;;;1.95;1.70;;;;;;;;;;5009827;28;20512;-73
2021/11/01 02:34:28;;;;;;;8.02;1.92;;;;;;;;;;5009449;28;20125;-73
2021/11/01 02:36:55;;;;;;;0.70;0.70;;;;;;;;;;5011045;28;20091;-73
2021/11/01 02:39:21;;;;;;;1.15;0.73;;;;;;;;;;5018789;28;20026;-73
2021/11/01 02:41:47;;;;;;;5.20;1.88;;;;;;;;;;5011136;28;20485;-73
2021/11/01 02:44:13;;;;;;;0.98;0.90;;;;;;;;;;5014044;28;20053;-73
2021/11/01 02:46:43;;;;;;;1.52;1.08;;;;;;;;;;5012165;28;20042;-73
2021/11/01 02:49:08;;;;;;;2.10;1.92;;;;;;;;;;5012902;28;20037;-73
2021/11/01 02:51:35;;;;;;;0.70;0.68;;;;;;;;;;5009535;28;20048;-73
2021/11/01 02:54:02;;;;;;;1.88;1.58;;;;;;;;;;5007943;28;20025;-73
2021/11/01 02:56:28;;;;;;;0.90;0.82;;;;;;;;;;5010147;28;20049;-73
2021/11/01 02:58:54;;;;;;;1.95;1.35;;;;;;;;;;5013405;28;20022;-74
2021/11/01 03:01:20;;;;;;;2.88;2.50;;;;;;;;;;5009308;28;20511;-73
2021/11/01 03:03:46;;;;;;;1.20;1.00;;;;;;;;;;5008864;28;20037;-73
2021/11/01 03:06:15;;;;;;;1.35;1.33;;;;;;;;;;5016169;28;20022;-73
2021/11/01 03:08:41;;;;;;;2.88;2.33;;;;;;;;;;5009866;28;20481;-73
2021/11/01 03:11:08;;;;;;;0.90;0.90;;;;;;;;;;5012776;28;20116;-73
2021/11/01 03:13:34;;;;;;;2.70;1.52;;;;;;;;;;5009331;28;20045;-73
2021/11/01 03:16:03;;;;;;;1.17;0.95;;;;;;;;;;5009638;28;20594;-73
2021/11/01 03:18:31;;;;;;;1.40;1.30;;;;;;;;;;5010047;28;20266;-73
2021/11/01 03:20:58;;;;;;;4.25;2.13;;;;;;;;;;5009344;28;20069;-73
2021/11/01 03:23:26;;;;;;;1.95;1.33;;;;;;;;;;5015403;28;20121;-74
2021/11/01 03:25:54;;;;;;;0.43;0.43;;;;;;;;;;5009382;28;20105;-73
2021/11/01 03:28:21;;;;;;;1.25;1.25;;;;;;;;;;5009237;28;20030;-73
2021/11/01 03:30:47;;;;;;;2.35;1.38;;;;;;;;;;5008750;28;20044;-73
2021/11/01 03:33:14;;;;;;;2.55;2.38;;;;;;;;;;5009024;28;20030;-73
2021/11/01 03:35:42;;;;;;;1.17;0.80;;;;;;;;;;5009528;28;20060;-73
2021/11/01 03:38:08;;;;;;;1.48;1.38;;;;;;;;;;5012396;28;20072;-73
2021/11/01 03:40:36;;;;;;;3.50;2.30;;;;;;;;;;5009752;28;20091;-73
2021/11/01 03:43:04;;;;;;;0.98;0.90;;;;;;;;;;5009049;28;20473;-73
2021/11/01 03:45:31;;;;;;;1.77;1.67;;;;;;;;;;5012677;28;20032;-73
2021/11/01 03:48:03;;;;;;;2.05;1.70;;;;;;;;;;5008256;28;20026;-73
2021/11/01 03:50:47;;;;;;;1.25;0.77;;;;;;;;;;5013015;28;20037;-73
2021/11/01 03:53:13;;;;;;;2.58;1.50;;;;;;;;;;5009269;28;20038;-73
2021/11/01 03:55:40;;;;;;;1.75;1.65;;;;;;;;;;5009067;28;20038;-74
2021/11/01 03:58:06;;;;;;;0.77;0.77;;;;;;;;;;5015746;28;20121;-74
2021/11/01 04:00:35;;;;;;;1.08;1.02;;;;;;;;;;5014611;28;20223;-73
2021/11/01 04:03:02;;;;;;;2.15;2.03;;;;;;;;;;5008667;28;20026;-73
2021/11/01 04:05:28;;;;;;;1.58;1.48;;;;;;;;;;5009597;28;20049;-73
2021/11/01 04:07:55;;;;;;;1.52;1.42;;;;;;;;;;5009715;28;20122;-73
2021/11/01 04:10:21;;;;;;;1.30;1.20;;;;;;;;;;5014883;28;20080;-73
2021/11/01 04:12:47;;;;;;;4.40;2.80;;;;;;;;;;5008968;28;20030;-73
2021/11/01 04:15:18;;;;;;;1.52;1.23;;;;;;;;;;5010851;28;20514;-72
2021/11/01 04:17:46;;;;;;;3.55;2.97;;;;;;;;;;5009299;28;20109;-73
2021/11/01 04:22:42;;;;;;;0.93;0.93;;;;;;;;;;5010053;28;20026;-72
2021/11/01 04:25:08;;;;;;;3.47;1.55;;;;;;;;;;5007052;28;20117;-72
2021/11/01 04:27:35;;;;;;;0.57;0.57;;;;;;;;;;5013082;28;20036;-72
2021/11/01 04:30:01;;;;;;;0.73;0.52;;;;;;;;;;5013254;28;20659;-72
2021/11/01 04:32:39;;;;;;;1.00;0.95;;;;;;;;;;5009422;28;20080;-72
2021/11/01 04:35:13;;;;;;;1.63;1.52;;;;;;;;;;5012819;28;20045;-72
2021/11/01 04:37:41;;;;;;;3.33;1.95;;;;;;;;;;5009512;28;20102;-71
2021/11/01 04:40:24;;;;;;;1.73;1.48;;;;;;;;;;5006212;28;20026;-73
2021/11/01 04:43:12;;;;;;;2.22;1.45;;;;;;;;;;5008169;28;20026;-73
2021/11/01 04:54:09;;;;;;;1.95;1.45;;;;;;;;;;5016260;28;20235;-72
2021/11/01 04:56:36;;;;;;;2.85;1.85;;;;;;;;;;5007656;28;20042;-73
2021/11/01 04:59:03;;;;;;;1.50;1.40;;;;;;;;;;5007843;28;20037;-73
2021/11/01 05:01:34;;;;;;;2.30;1.88;;;;;;;;;;5006065;28;20053;-73
2021/11/01 05:04:05;;;;;;;3.60;2.05;;;;;;;;;;5011091;28;20025;-72
2021/11/01 05:06:31;;;;;;;1.08;0.98;;;;;;;;;;5023872;28;20091;-72
2021/11/01 05:09:01;;;;;;;1.70;1.23;;;;;;;;;;5017518;28;20108;-73
2021/11/01 05:11:32;;;;;;;1.58;1.48;;;;;;;;;;5011782;28;20050;-73
2021/11/01 05:13:59;;;;;;;5.40;2.97;;;;;;;;;;5010525;28;20122;-73
2021/11/01 05:16:42;;;;;;;2.30;1.52;;;;;;;;;;5011044;28;20423;-73
2021/11/01 05:19:21;;;;;;;0.88;0.85;;;;;;;;;;5008271;28;20037;-73
2021/11/01 05:24:25;;;;;;;1.85;1.33;;;;;;;;;;5013510;28;20041;-73
2021/11/01 05:27:06;;;;;;;3.67;2.05;;;;;;;;;;5010548;28;20040;-73
2021/11/01 05:29:32;;;;;;;6.38;2.95;;;;;;;;;;5011703;28;20028;-73
2021/11/01 05:32:07;;;;;;;3.90;2.42;;;;;;;;;;5009822;28;20039;-70
2021/11/01 05:34:33;;;;;;;5.75;2.20;;;;;;;;;;5010736;28;20109;-71
2021/11/01 05:36:59;;;;;;;1.50;1.40;;;;;;;;;;5012975;28;20138;-71
2021/11/01 05:39:25;;;;;;;4.05;2.00;;;;;;;;;;5008120;28;20075;-71
2021/11/01 05:41:51;;;;;;;1.40;1.27;;;;;;;;;;5014980;28;20058;-71
2021/11/01 05:44:18;;;;;;;3.58;2.35;;;;;;;;;;5010042;28;20052;-71
2021/11/01 05:46:49;;;;;;;5.35;1.30;;;;;;;;;;5009387;28;20550;-71
2021/11/01 05:49:17;;;;;;;4.53;2.05;;;;;;;;;;5021139;28;20037;-71
2021/11/01 05:51:43;;;;;;;3.47;1.58;;;;;;;;;;5012341;28;20032;-73
2021/11/01 05:54:16;;;;;;;3.67;2.60;;;;;;;;;;5011747;28;20029;-71
2021/11/01 06:01:44;;;;;;;2.35;1.55;;;;;;;;;;5014768;28;20033;-71
2021/11/01 06:04:42;;;;;;;2.45;2.05;;;;;;;;;;5011119;28;20037;-72
2021/11/01 06:09:59;;;;;;;3.30;2.75;;;;;;;;;;5010402;28;20038;-70
2021/11/01 06:15:11;;;;;;;1.92;0.90;;;;;;;;;;5012231;28;20033;-71
2021/11/01 06:17:37;;;;;;;3.38;1.88;;;;;;;;;;5011568;28;20034;-71
2021/11/01 06:20:05;;;;;;;1.35;1.35;;;;;;;;;;5011420;28;20472;-70
2021/11/01 06:22:31;;;;;;;3.17;2.28;;;;;;;;;;5007758;28;20117;-71
2021/11/01 06:24:59;;;;;;;1.33;1.27;;;;;;;;;;5009824;28;20062;-71
2021/11/01 06:27:26;;;;;;;4.85;2.72;;;;;;;;;;5011155;28;20022;-72
2021/11/01 06:40:35;;;;;;;2.38;2.25;;;;;;;;;;5012706;28;20036;-76
2021/11/01 06:45:42;;;;;;;2.50;2.28;;;;;;;;;;5009307;28;20489;-70
2021/11/01 06:51:03;;;;;;;1.25;1.15;;;;;;;;;;5014345;28;20040;-71
2021/11/01 06:53:57;;;;;;;1.63;1.52;;;;;;;;;;5010080;28;20058;-71
2021/11/01 07:18:13;;;;;;;5.68;2.13;;;;;;;;;;5009895;28;20236;-70
2021/11/01 07:20:51;;;;;;;2.10;1.55;;;;;;;;;;5010752;28;20050;-71
2021/11/01 08:24:20;;;;;;;1.88;0.85;;;;;;;;;;5008291;28;20425;-71
2021/11/01 08:29:56;;;;;;;1.45;1.35;;;;;;;;;;5007955;28;20083;-71
2021/11/01 08:35:42;;;;;;;1.83;1.73;;;;;;;;;;5007640;28;20504;-70
2021/11/01 08:38:19;;;;;;;14.02;3.13;;;;;;;;;;5009614;28;20030;-71
2021/11/01 08:41:05;;;;;;;1.65;1.55;;;;;;;;;;5012741;28;20218;-70
2021/11/01 08:46:42;;;;;;;2.88;2.10;;;;;;;;;;5012231;28;20092;-71
2021/11/01 09:18:44;;;;;;;1.35;1.30;;;;;;;;;;5006095;28;20058;-70
2021/11/01 09:24:41;;;;;;;2.85;2.40;;;;;;;;;;5012654;28;20164;-70
2021/11/01 09:27:09;;;;;;;2.28;1.38;;;;;;;;;;5010198;28;20033;-70
2021/11/01 09:43:07;;;;;;;2.47;2.28;;;;;;;;;;5018403;28;20393;-70
2021/11/01 09:45:36;;;;;;;1.30;1.25;;;;;;;;;;5015581;28;20079;-70
2021/11/01 09:48:03;;;;;;;8.43;3.38;;;;;;;;;;5029883;28;20493;-70
2021/11/01 09:50:29;;;;;;;4.88;2.83;;;;;;;;;;5011849;28;20037;-70
2021/11/01 09:53:00;;;;;;;1.40;1.33;;;;;;;;;;5013480;28;20025;-70
2021/11/01 10:00:51;;;;;;;2.35;2.00;;;;;;;;;;5011158;28;20045;-71
2021/11/01 10:03:17;;;;;;;3.55;2.45;;;;;;;;;;5011303;28;20021;-70
2021/11/01 10:05:52;;;;;;;0.93;0.93;;;;;;;;;;5011145;28;20030;-70
2021/11/01 10:08:18;;;;;;;2.45;1.55;;;;;;;;;;5011012;28;20026;-69
2021/11/01 10:10:44;;;;;;;2.05;1.02;;;;;;;;;;5010507;28;20541;-70
2021/11/01 10:13:16;;;;;;;10.27;2.58;;;;;;;;;;5010759;28;20048;-70
2021/11/01 10:18:28;;;;;;;1.33;1.23;;;;;;;;;;5010787;28;20091;-69
2021/11/01 10:20:55;;;;;;;0.77;0.45;;;;;;;;;;5009492;28;20232;-69
2021/11/01 10:23:23;;;;;;;1.42;1.33;;;;;;;;;;5014966;28;20125;-70
2021/11/01 10:25:49;;;;;;;1.40;1.33;;;;;;;;;;5010393;28;20033;-71
2021/11/01 10:28:15;;;;;;;10.15;1.63;;;;;;;;;;5010716;28;20504;-71
2021/11/01 10:30:41;;;;;;;2.03;1.85;;;;;;;;;;5010466;28;20061;-71
2021/11/01 10:33:09;;;;;;;4.28;1.00;;;;;;;;;;5010721;28;20045;-71
2021/11/01 10:35:37;;;;;;;7.55;2.00;;;;;;;;;;5010129;28;20065;-70
2021/11/01 10:38:35;;;;;;;0.80;0.80;;;;;;;;;;5010148;28;20025;-70
2021/11/01 10:41:25;;;;;;;2.38;1.77;;;;;;;;;;5005746;28;20053;-71
2021/11/01 11:11:27;;;;;;;0.70;0.70;;;;;;;;;;5009153;28;20405;-71
2021/11/01 11:14:03;;;;;;;1.02;0.75;;;;;;;;;;5008883;28;20391;-71
2021/11/01 11:17:04;;;;;;;0.82;0.82;;;;;;;;;;5005830;28;20045;-70
2021/11/01 11:19:44;;;;;;;29.80;1.52;;;;;;;;;;5008418;28;20057;-70
2021/11/01 11:22:30;;;;;;;0.82;0.82;;;;;;;;;;5007167;28;20176;-70
2021/11/01 11:30:43;;;;;;;1.27;0.77;;;;;;;;;;5018274;28;20026;-71
2021/11/01 11:33:27;;;;;;;1.80;1.70;;;;;;;;;;5005911;28;20037;-70
2021/11/01 11:47:13;;;;;;;1.35;1.23;;;;;;;;;;5009984;28;20034;-70
2021/11/01 11:49:39;;;;;;;;;;;;;;;;;;5013014;28;20030;-70
2021/11/01 11:52:07;;;;;;;2.22;1.88;;;;;;;;;;5009603;28;20558;-70
2021/11/01 11:54:45;;;;;;;2.00;0.95;;;;;;;;;;5009575;28;20108;-71
2021/11/01 11:57:18;;;;;;;0.20;0.20;;;;;;;;;;5008667;28;20595;-70
2021/11/01 11:59:47;;;;;;;2.13;0.80;;;;;;;;;;5005793;28;20037;-70
2021/11/01 12:02:13;;;;;;;2.22;1.27;;;;;;;;;;5008725;28;20463;-70
2021/11/01 12:04:46;;;;;;;0.70;0.63;;;;;;;;;;5008355;28;20109;-70
2021/11/01 12:07:15;;;;;;;0.77;0.77;;;;;;;;;;5008564;28;20048;-73
2021/11/01 12:09:52;;;;;;;2.65;1.75;;;;;;;;;;5016224;28;20029;-70
2021/11/01 12:17:53;;;;;;;1.38;1.05;;;;;;;;;;5012581;28;20030;-71
2021/11/01 12:20:21;;;;;;;0.75;0.75;;;;;;;;;;5007388;28;20153;-70
2021/11/01 12:22:50;;;;;;;0.30;0.30;;;;;;;;;;5007643;28;20042;-71
2021/11/01 12:25:17;;;;;;;0.80;0.80;;;;;;;;;;5007920;28;20030;-70
2021/11/01 12:27:46;;;;;;;0.22;0.22;;;;;;;;;;5007796;28;20393;-71
2021/11/01 12:30:17;;;;;;;0.77;0.70;;;;;;;;;;5007228;28;20100;-71
2021/11/01 12:32:43;;;;;;;38.47;1.17;;;;;;;;;;5008407;28;20061;-70
2021/11/01 12:35:21;;;;;;;0.55;0.45;;;;;;;;;;5011668;28;20068;-71
2021/11/01 12:37:52;;;;;;;1.85;1.58;;;;;;;;;;5012654;28;20128;-70
2021/11/01 12:43:26;;;;;;;2.30;1.75;;;;;;;;;;5008163;28;20041;-71
2021/11/01 12:57:00;;;;;;;1.35;0.75;;;;;;;;;;5008153;28;20053;-71
2021/11/01 12:59:49;;;;;;;2.50;1.45;;;;;;;;;;5007920;28;20057;-71
2021/11/01 13:02:18;;;;;;;0.93;0.75;;;;;;;;;;5004582;28;20033;-71
2021/11/01 13:04:49;;;;;;;0.73;0.73;;;;;;;;;;5006063;28;20021;-70
2021/11/01 13:18:12;;;;;;;1.42;1.33;;;;;;;;;;5006880;28;20025;-73
2021/11/01 13:21:01;;;;;;;0.52;0.52;;;;;;;;;;5002419;28;20484;-74
2021/11/01 13:23:32;;;;;;;0.30;0.30;;;;;;;;;;5001263;28;20030;-74
2021/11/01 13:26:12;;;;;;;;;;;;;;;;;;5007416;28;20025;-73
2021/11/01 13:29:07;;;;;;;0.52;0.52;;;;;;;;;;5012844;28;20371;-73
2021/11/01 13:34:48;;;;;;;0.10;0.10;;;;;;;;;;5003465;28;20040;-74
2021/11/01 13:39:58;;;;;;;0.88;0.88;;;;;;;;;;5007724;28;20042;-72
2021/11/01 13:42:24;;;;;;;0.05;0.05;;;;;;;;;;5015694;28;20395;-71
2021/11/01 13:44:50;;;;;;;0.50;0.50;;;;;;;;;;5012841;28;20022;-73
2021/11/01 13:47:17;;;;;;;0.30;0.30;;;;;;;;;;5023383;28;20076;-72
2021/11/01 13:49:45;;;;;;;3.13;1.13;;;;;;;;;;5008562;28;20028;-72
2021/11/01 13:55:06;;;;;;;0.40;0.40;;;;;;;;;;5011615;28;20079;-71
2021/11/01 13:57:42;;;;;;;2.72;1.65;;;;;;;;;;5006936;28;20037;-72
2021/11/01 14:00:22;;;;;;;1.90;1.10;;;;;;;;;;5011811;28;20036;-71
2021/11/01 14:11:35;;;;;;;0.68;0.60;;;;;;;;;;5008846;28;20068;-72
2021/11/01 14:14:15;;;;;;;0.85;0.52;;;;;;;;;;5023078;28;20030;-73
2021/11/01 14:19:18;;;;;;;0.20;0.20;;;;;;;;;;5009862;28;20080;-73
2021/11/01 14:55:12;;;;;;;0.00;0.00;;;;;;;;;;5009450;28;20072;-75
2021/11/01 15:06:38;;;;;;;1.40;1.20;;;;;;;;;;5006445;28;20034;-75
2021/11/01 15:14:17;;;;;;;0.45;0.45;;;;;;;;;;4987476;28;20529;-78
2021/11/01 15:16:59;;;;;;;0.13;0.13;;;;;;;;;;4991541;28;20092;-79
2021/11/01 15:22:31;;;;;;;12.63;0.47;;;;;;;;;;4997078;28;20036;-80
2021/11/01 15:31:04;;;;;;;0.25;0.25;;;;;;;;;;5003745;28;20076;-79
2021/11/01 15:39:03;;;;;;;1.00;0.80;;;;;;;;;;5011054;28;20033;-76
2021/11/01 15:41:46;;;;;;;0.00;0.00;;;;;;;;;;5012538;28;20043;-78
2021/11/01 16:19:48;;;;;;;0.40;0.40;;;;;;;;;;5004526;28;20041;-75
2021/11/01 16:22:15;;;;;;;0.28;0.28;;;;;;;;;;5004683;28;20037;-74
2021/11/01 16:24:41;;;;;;;0.40;0.40;;;;;;;;;;5007910;28;20096;-75
2021/11/01 16:27:08;;;;;;;0.77;0.77;;;;;;;;;;5005941;28;20521;-76
2021/11/01 16:29:57;;;;;;;1.00;0.47;;;;;;;;;;5006797;28;20026;-74
2021/11/01 16:32:32;;;;;;;0.28;0.28;;;;;;;;;;5006591;28;20036;-74
2021/11/01 16:35:02;;;;;;;0.35;0.35;;;;;;;;;;5013630;28;20382;-74
2021/11/01 16:37:33;;;;;;;0.00;0.00;;;;;;;;;;5003114;28;20680;-74
2021/11/01 16:40:01;;;;;;;2.92;1.00;;;;;;;;;;5004708;28;20434;-74
2021/11/01 16:42:31;;;;;;;0.73;0.73;;;;;;;;;;5011559;28;20054;-74
2021/11/01 16:45:04;;;;;;;0.60;0.35;;;;;;;;;;5000589;28;20485;-75
2021/11/01 16:47:30;;;;;;;0.90;0.52;;;;;;;;;;5001269;28;20061;-79
2021/11/01 16:49:56;;;;;;;0.20;0.20;;;;;;;;;;4997848;28;20036;-80
2021/11/01 16:52:22;;;;;;;0.45;0.45;;;;;;;;;;5000120;28;20022;-85
2021/11/01 16:54:56;;;;;;;0.38;0.38;;;;;;;;;;5000544;28;20026;-86
2021/11/01 16:57:31;;;;;;;0.13;0.10;;;;;;;;;;5007824;28;20474;-85
2021/11/01 17:02:59;;;;;;;0.52;0.32;;;;;;;;;;5009000;28;20038;-87
2021/11/01 17:05:31;;;;;;;0.45;0.45;;;;;;;;;;5010438;28;20263;-85
2021/11/01 17:08:20;;;;;;;0.98;0.68;;;;;;;;;;5012507;28;21788;-85
2021/11/01 17:27:05;;;;;;;0.80;0.60;;;;;;;;;;5006946;28;20588;-85
2021/11/01 17:38:32;;;;;;;0.75;0.75;;;;;;;;;;5007552;28;20548;-83
2021/11/01 18:36:41;;;;;;;0.30;0.30;;;;;;;;;;5014959;28;20064;-84
2021/11/01 18:38:54;;;;;;;1.35;0.77;;;;;;;;;;5009114;28;20132;-83
2021/11/01 18:41:23;;;;;;;1.75;1.33;;;;;;;;;;5012090;28;20501;-83
2021/11/01 18:50:49;;;;;;;0.38;0.38;;;;;;;;;;5008786;28;20045;-83
2021/11/01 18:52:18;;;;;;;0.17;0.17;;;;;;;;;;5006937;28;20060;-84
2021/11/01 18:54:50;;;;;;;0.38;0.30;;;;;;;;;;5011866;28;20034;-83
2021/11/01 18:57:16;;;;;;;2.30;1.80;;;;;;;;;;5008726;28;20108;-83
2021/11/01 18:59:43;;;;;;;0.63;0.32;;;;;;;;;;5008267;28;20125;-83
2021/11/01 19:02:36;;;;;;;0.90;0.90;;;;;;;;;;5012105;28;20053;-83
2021/11/01 19:05:11;;;;;;;0.17;0.17;;;;;;;;;;5009705;28;20033;-83
2021/11/01 19:13:36;;;;;;;1.88;0.90;;;;;;;;;;5009649;28;20061;-83
2021/11/01 20:05:51;;;;;;;0.30;0.20;;;;;;;;;;5001968;28;20058;-73
2021/11/01 20:08:37;;;;;;;0.30;0.30;;;;;;;;;;5005636;28;20384;-73
2021/11/01 20:11:25;;;;;;;0.10;0.10;;;;;;;;;;5010681;28;20405;-73
2021/11/01 21:25:40;;;;;;;0.00;0.00;;;;;;;;;;5005212;28;20053;-73
2021/11/01 21:28:06;;;;;;;0.20;0.20;;;;;;;;;;5005216;28;20465;-73
2021/11/01 21:30:33;;;;;;;0.95;0.38;;;;;;;;;;5006716;28;20033;-72
2021/11/01 21:32:59;;;;;;;0.10;0.10;;;;;;;;;;5004630;28;20044;-72
2021/11/01 21:35:29;;;;;;;0.15;0.15;;;;;;;;;;5001793;28;20552;-72
2021/11/01 21:37:55;;;;;;;0.00;0.00;;;;;;;;;;5013704;28;20084;-74
2021/11/01 21:40:22;;;;;;;0.30;0.30;;;;;;;;;;5004747;28;20276;-74
2021/11/01 21:42:51;;;;;;;2.47;0.55;;;;;;;;;;5015199;28;20083;-74
2021/11/01 21:45:17;;;;;;;0.10;0.10;;;;;;;;;;5021295;28;20385;-74
2021/11/01 21:47:43;;;;;;;0.30;0.30;;;;;;;;;;5017576;28;20026;-74
2021/11/01 21:50:09;;;;;;;0.10;0.10;;;;;;;;;;5011728;28;20026;-74
2021/11/01 21:52:36;;;;;;;0.00;0.00;;;;;;;;;;5019447;28;20042;-74
2021/11/01 21:55:03;;;;;;;0.15;0.15;;;;;;;;;;5010756;28;20462;-74
2021/11/01 22:17:31;;;;;;;0.00;0.00;;;;;;;;;;5009460;28;20041;-74
2021/11/01 22:19:43;;;;;;;0.55;0.55;;;;;;;;;;5013049;28;20050;-73
2021/11/01 22:25:08;;;;;;;0.52;0.52;;;;;;;;;;5012111;28;20076;-75
2021/11/01 22:38:28;;;;;;;0.32;0.32;;;;;;;;;;5008152;28;20072;-75
2021/11/01 22:41:01;;;;;;;0.30;0.30;;;;;;;;;;5010056;28;20492;-75
2021/11/01 22:56:33;;;;;;;0.15;0.15;;;;;;;;;;5008729;28;20068;-75
2021/11/01 22:59:00;;;;;;;0.10;0.10;;;;;;;;;;5006437;28;20444;-72
2021/11/01 23:01:28;;;;;;;0.10;0.10;;;;;;;;;;5004784;28;20026;-75
2021/11/01 23:04:04;;;;;;;1.27;0.73;;;;;;;;;;5007672;28;20034;-75
2021/11/01 23:06:59;;;;;;;0.30;0.30;;;;;;;;;;5004240;28;20029;-75
2021/11/01 23:31:42;;;;;;;0.10;0.10;;;;;;;;;;5016422;28;20397;-74
2021/11/01 23:34:10;;;;;;;0.00;0.00;;;;;;;;;;5008714;28;20030;-74
2021/11/01 23:36:37;;;;;;;0.25;0.25;;;;;;;;;;5007728;28;20032;-76
2021/11/01 23:39:03;;;;;;;0.65;0.52;;;;;;;;;;5010753;28;20369;-74
2021/11/01 23:41:29;;;;;;;0.50;0.50;;;;;;;;;;5008526;28;20454;-75
2021/11/01 23:43:55;;;;;;;0.47;0.47;;;;;;;;;;5009551;28;20489;-75
2021/11/01 23:46:21;;;;;;;0.50;0.50;;;;;;;;;;5007383;28;20080;-75
2021/11/01 23:48:48;;;;;;;0.50;0.47;;;;;;;;;;5009102;28;20029;-74
2021/11/01 23:51:17;;;;;;;0.13;0.13;;;;;;;;;;5009633;28;20022;-74
2021/11/01 23:56:10;;;;;;;0.15;0.15;;;;;;;;;;5004865;28;20065;-75
2021/11/01 23:58:37;;;;;;;0.43;0.43;;;;;;;;;;5006506;28;20078;-75
